Time;durP1;ratioP1;P1;durP2;ratioP2;P2;SDS_P1;SDS_P2;PMS_P1;PMS_P2;Temp;Humidity;BMP_temperature;BMP_pressure;BME280_temperature;BME280_humidity;BME280_pressure;Samples;Min_cycle;Max_cycle;Signal;HPM_P1;HPM_P2
2021/06/28 00:01:41;;;;;;;;;;;;;;;15.38;51.91;101042.55;1629177;86;20170;-74
2021/06/28 00:04:07;;;;;;;;;;;;;;;15.35;52.11;101033.06;1630741;86;20193;-74
2021/06/28 00:06:33;;;;;;;;;;;;;;;15.36;52.26;101031.31;1629562;86;20216;-74
2021/06/28 00:08:59;;;;;;;;;;;;;;;15.36;52.28;101032.17;1629557;86;20594;-74
2021/06/28 00:11:26;;;;;;;;;;;;;;;15.36;52.30;101032.63;1630054;86;20162;-74
2021/06/28 00:13:54;;;;;;;;;;;;;;;15.35;52.26;101041.33;1629389;86;20484;-74
2021/06/28 00:16:23;;;;;;;;;;;;;;;15.33;52.32;101040.52;1603063;86;20437;-74
2021/06/28 00:18:48;;;;;;;;;;;;;;;15.28;52.25;101043.27;1631042;86;20149;-74
2021/06/28 00:21:15;;;;;;;;;;;;;;;15.25;52.30;101040.74;1630760;88;20133;-74
2021/06/28 00:23:41;;;;;;;;;;;;;;;15.21;52.37;101037.81;1630501;86;20214;-74
2021/06/28 00:26:07;;;;;;;;;;;;;;;15.18;52.56;101038.76;1625064;86;20748;-74
2021/06/28 00:28:33;;;;;;;;;;;;;;;15.15;52.60;101039.29;1620527;86;20139;-74
2021/06/28 00:30:59;;;;;;;;;;;;;;;15.11;52.66;101044.18;1619616;86;20481;-74
2021/06/28 00:33:25;;;;;;;;;;;;;;;15.10;52.78;101034.66;1617781;87;20796;-74
2021/06/28 00:35:51;;;;;;;;;;;;;;;15.08;52.81;101037.75;1630231;86;20160;-74
2021/06/28 00:38:17;;;;;;;;;;;;;;;15.04;52.90;101033.55;1624242;87;20223;-74
2021/06/28 00:40:44;;;;;;;;;;;;;;;15.03;52.91;101030.09;1630530;86;20200;-74
2021/06/28 00:43:11;;;;;;;;;;;;;;;15.00;52.97;101026.27;1630327;87;20508;-74
2021/06/28 00:45:40;;;;;;;;;;;;;;;14.97;53.00;101021.59;1612141;86;20149;-74
2021/06/28 00:48:09;;;;;;;;;;;;;;;14.93;53.15;101023.87;1623892;87;20177;-74
2021/06/28 00:50:44;;;;;;;;;;;;;;;14.89;53.22;101027.02;1614447;87;20225;-74
2021/06/28 00:53:12;;;;;;;;;;;;;;;14.87;53.29;101028.36;1621438;87;20193;-74
2021/06/28 00:55:39;;;;;;;;;;;;;;;14.87;53.30;101030.96;1614168;87;20529;-74
2021/06/28 00:58:06;;;;;;;;;;;;;;;14.86;53.27;101032.30;1623649;87;20583;-74
2021/06/28 01:00:33;;;;;;;;;;;;;;;14.83;53.21;101030.64;1624333;87;20501;-74
2021/06/28 01:02:59;;;;;;;;;;;;;;;14.79;53.28;101038.13;1627851;87;20170;-74
2021/06/28 01:05:30;;;;;;;;;;;;;;;14.76;53.37;101033.44;1625217;87;20107;-74
2021/06/28 01:07:55;;;;;;;;;;;;;;;14.72;53.52;101028.77;1625442;87;20390;-74
2021/06/28 01:10:21;;;;;;;;;;;;;;;14.68;53.59;101029.73;1621142;87;20186;-74
2021/06/28 01:12:49;;;;;;;;;;;;;;;14.65;53.60;101023.75;1619033;87;20107;-74
2021/06/28 01:15:16;;;;;;;;;;;;;;;14.53;53.48;101028.41;1625477;87;20452;-74
2021/06/28 01:17:42;;;;;;;;;;;;;;;14.36;53.82;101025.34;1625713;87;20429;-74
2021/06/28 01:20:14;;;;;;;;;;;;;;;14.31;53.93;101034.16;1632082;87;20438;-74
2021/06/28 01:22:43;;;;;;;;;;;;;;;14.33;53.94;101029.77;1625053;87;20423;-74
2021/06/28 01:25:12;;;;;;;;;;;;;;;14.36;53.91;101033.16;1625726;87;20431;-74
2021/06/28 01:27:40;;;;;;;;;;;;;;;14.36;53.90;101035.76;1630999;86;20090;-74
2021/06/28 01:30:08;;;;;;;;;;;;;;;14.34;53.89;101042.74;1625561;87;20442;-74
2021/06/28 01:32:34;;;;;;;;;;;;;;;14.32;53.92;101040.63;1626815;87;20118;-74
2021/06/28 01:35:00;;;;;;;;;;;;;;;14.32;53.98;101038.47;1626726;87;20114;-74
2021/06/28 01:37:27;;;;;;;;;;;;;;;14.30;54.09;101037.20;1625297;87;20410;-74
2021/06/28 01:39:59;;;;;;;;;;;;;;;14.27;54.19;101033.37;1625715;87;20114;-74
2021/06/28 01:42:27;;;;;;;;;;;;;;;14.23;54.18;101039.55;1625226;87;20122;-73
2021/06/28 01:44:53;;;;;;;;;;;;;;;14.09;54.20;101041.17;1625485;87;20441;-73
2021/06/28 01:47:21;;;;;;;;;;;;;;;14.06;54.27;101041.69;1638772;86;20434;-73
2021/06/28 01:49:48;;;;;;;;;;;;;;;14.06;54.32;101044.30;1630202;86;20181;-74
2021/06/28 01:52:14;;;;;;;;;;;;;;;14.04;54.41;101043.47;1630015;86;20497;-74
2021/06/28 01:54:40;;;;;;;;;;;;;;;14.00;54.48;101047.92;1630079;87;20473;-74
2021/06/28 01:57:07;;;;;;;;;;;;;;;14.00;54.62;101044.47;1630352;87;20464;-74
2021/06/28 01:59:36;;;;;;;;;;;;;;;13.99;54.71;101038.41;1629513;86;20484;-74
2021/06/28 02:02:04;;;;;;;;;;;;;;;14.01;54.65;101038.38;1629585;86;20429;-74
2021/06/28 02:04:31;;;;;;;;;;;;;;;13.99;54.66;101035.81;1631682;87;20210;-74
2021/06/28 02:06:58;;;;;;;;;;;;;;;13.97;54.78;101039.34;1630064;86;20222;-74
2021/06/28 02:09:24;;;;;;;;;;;;;;;13.97;54.79;101038.03;1630341;86;20217;-74
2021/06/28 02:11:51;;;;;;;;;;;;;;;13.96;54.82;101038.48;1630511;86;20488;-74
2021/06/28 02:14:17;;;;;;;;;;;;;;;13.96;54.90;101045.42;1630403;86;20178;-74
2021/06/28 02:16:44;;;;;;;;;;;;;;;13.95;54.86;101038.52;1630455;86;20476;-74
2021/06/28 02:19:11;;;;;;;;;;;;;;;13.93;54.88;101034.66;1630904;86;20153;-74
2021/06/28 02:21:42;;;;;;;;;;;;;;;13.91;54.90;101037.28;1630078;86;20185;-74
2021/06/28 02:24:09;;;;;;;;;;;;;;;13.87;54.94;101036.09;1630776;86;20659;-74
2021/06/28 02:26:35;;;;;;;;;;;;;;;13.83;55.06;101034.00;1630377;86;20186;-74
2021/06/28 02:29:01;;;;;;;;;;;;;;;13.81;55.08;101029.28;1630663;86;20185;-74
2021/06/28 02:31:28;;;;;;;;;;;;;;;13.75;55.04;101030.72;1630551;86;20194;-74
2021/06/28 02:33:55;;;;;;;;;;;;;;;13.71;55.12;101032.98;1633962;86;20167;-74
2021/06/28 02:36:23;;;;;;;;;;;;;;;13.71;55.24;101034.72;1627083;86;20178;-74
2021/06/28 02:38:50;;;;;;;;;;;;;;;13.69;55.32;101033.90;1630346;87;20170;-74
2021/06/28 02:41:20;;;;;;;;;;;;;;;13.65;55.45;101034.41;1630352;86;20473;-74
2021/06/28 02:43:47;;;;;;;;;;;;;;;13.64;55.56;101032.70;1623012;86;20189;-73
2021/06/28 02:46:14;;;;;;;;;;;;;;;13.65;55.66;101021.86;1633038;86;20531;-73
2021/06/28 02:48:40;;;;;;;;;;;;;;;13.66;55.66;101015.33;1629014;86;20486;-73
2021/06/28 02:51:09;;;;;;;;;;;;;;;13.70;55.79;101021.31;1630022;86;20213;-73
2021/06/28 02:53:35;;;;;;;;;;;;;;;13.70;55.72;101021.31;1629764;86;21157;-73
2021/06/28 02:56:13;;;;;;;;;;;;;;;13.67;55.80;101022.69;1629726;86;20556;-73
2021/06/28 02:58:46;;;;;;;;;;;;;;;13.70;55.82;101017.42;1630285;87;20421;-73
2021/06/28 03:01:17;;;;;;;;;;;;;;;13.72;55.85;101016.94;1629741;87;20584;-73
2021/06/28 03:03:44;;;;;;;;;;;;;;;13.73;55.78;101013.01;1630457;86;20155;-73
2021/06/28 03:06:10;;;;;;;;;;;;;;;13.73;55.75;101008.25;1629630;86;20165;-73
2021/06/28 03:08:36;;;;;;;;;;;;;;;13.74;55.84;101009.97;1625629;87;20284;-73
2021/06/28 03:11:04;;;;;;;;;;;;;;;13.66;55.83;101007.53;1630330;87;20594;-73
2021/06/28 03:13:32;;;;;;;;;;;;;;;13.61;56.02;101002.88;1629897;86;20174;-73
2021/06/28 03:15:59;;;;;;;;;;;;;;;13.63;56.18;101005.00;1629252;87;20154;-74
2021/06/28 03:18:25;;;;;;;;;;;;;;;13.69;56.21;101008.77;1629524;86;20616;-74
2021/06/28 03:20:52;;;;;;;;;;;;;;;13.71;56.25;101009.59;1629158;86;20134;-74
2021/06/28 03:23:19;;;;;;;;;;;;;;;13.74;56.33;101013.41;1630012;87;20197;-74
2021/06/28 03:25:45;;;;;;;;;;;;;;;13.81;56.43;101014.13;1629424;87;20138;-74
2021/06/28 03:28:12;;;;;;;;;;;;;;;13.88;56.50;101010.50;1629230;86;20256;-74
2021/06/28 03:30:37;;;;;;;;;;;;;;;13.96;56.55;101014.23;1628628;86;20206;-74
2021/06/28 03:33:04;;;;;;;;;;;;;;;14.04;56.59;101014.88;1634287;86;20113;-74
2021/06/28 03:35:31;;;;;;;;;;;;;;;14.12;56.56;101016.84;1631780;86;20101;-74
2021/06/28 03:37:57;;;;;;;;;;;;;;;14.17;56.64;101017.59;1604890;88;20119;-74
2021/06/28 03:40:23;;;;;;;;;;;;;;;14.17;56.44;101019.73;1632094;86;20110;-74
2021/06/28 03:42:49;;;;;;;;;;;;;;;14.15;56.63;101013.72;1632149;86;20135;-73
2021/06/28 03:45:16;;;;;;;;;;;;;;;14.22;56.79;101015.28;1632556;86;20153;-73
2021/06/28 03:47:42;;;;;;;;;;;;;;;14.29;56.81;101013.83;1633672;86;20130;-73
2021/06/28 03:50:10;;;;;;;;;;;;;;;14.35;56.95;101011.94;1633665;87;20442;-73
2021/06/28 03:52:37;;;;;;;;;;;;;;;14.44;56.99;101010.44;1634068;86;20098;-73
2021/06/28 03:55:04;;;;;;;;;;;;;;;14.51;57.03;101012.44;1632664;87;20181;-73
2021/06/28 03:57:30;;;;;;;;;;;;;;;14.60;57.06;101011.31;1629802;86;20215;-73
2021/06/28 03:59:57;;;;;;;;;;;;;;;14.67;57.14;101012.41;1591708;87;20531;-73
2021/06/28 04:02:23;;;;;;;;;;;;;;;14.75;57.20;101012.21;1630041;86;20234;-73
2021/06/28 04:04:49;;;;;;;;;;;;;;;14.82;57.25;101006.80;1635043;86;20254;-73
2021/06/28 04:07:16;;;;;;;;;;;;;;;14.94;57.34;101000.41;1631996;86;20208;-73
2021/06/28 04:09:42;;;;;;;;;;;;;;;15.12;57.48;100999.86;1632048;86;20165;-73
2021/06/28 04:12:10;;;;;;;;;;;;;;;15.44;57.73;101004.13;1619941;87;20221;-73
2021/06/28 04:14:37;;;;;;;;;;;;;;;15.88;57.86;101001.92;1628678;86;20190;-73
2021/06/28 04:17:03;;;;;;;;;;;;;;;16.32;57.77;101003.06;1625369;86;20191;-73
2021/06/28 04:19:30;;;;;;;;;;;;;;;16.66;57.50;101004.53;1624980;85;20302;-73
2021/06/28 04:21:56;;;;;;;;;;;;;;;16.91;57.33;101000.61;1631909;86;20177;-73
2021/06/28 04:24:22;;;;;;;;;;;;;;;17.12;57.31;101004.60;1632166;86;20189;-73
2021/06/28 04:26:48;;;;;;;;;;;;;;;17.35;57.30;101002.41;1631619;86;20197;-73
2021/06/28 04:29:14;;;;;;;;;;;;;;;17.62;57.23;100999.66;1632360;86;20288;-73
2021/06/28 04:31:40;;;;;;;;;;;;;;;17.83;57.13;101002.73;1632374;86;20264;-73
2021/06/28 04:34:06;;;;;;;;;;;;;;;17.96;57.00;101003.10;1633516;86;20271;-74
2021/06/28 04:36:32;;;;;;;;;;;;;;;18.08;56.98;101003.46;1631476;86;20196;-74
2021/06/28 04:38:58;;;;;;;;;;;;;;;18.15;56.98;101001.45;1632086;87;20208;-74
2021/06/28 04:41:24;;;;;;;;;;;;;;;18.25;56.95;100996.66;1624780;85;614693;-73
2021/06/28 04:43:50;;;;;;;;;;;;;;;18.30;56.92;100998.16;1633581;86;20161;-74
2021/06/28 04:46:16;;;;;;;;;;;;;;;18.38;56.88;100998.70;1633622;86;20113;-74
2021/06/28 04:48:42;;;;;;;;;;;;;;;18.42;56.99;100995.48;1632208;86;21552;-74
2021/06/28 04:51:08;;;;;;;;;;;;;;;18.48;57.12;100993.92;1624885;86;20172;-74
2021/06/28 04:53:34;;;;;;;;;;;;;;;18.59;57.21;100985.61;1632477;86;20126;-74
2021/06/28 04:56:00;;;;;;;;;;;;;;;18.77;57.29;100993.98;1632271;86;20610;-74
2021/06/28 04:58:26;;;;;;;;;;;;;;;18.98;57.29;100987.79;1624972;88;20104;-74
2021/06/28 05:00:52;;;;;;;;;;;;;;;19.27;57.22;100993.00;1631700;87;20154;-74
2021/06/28 05:03:18;;;;;;;;;;;;;;;19.56;57.14;100995.62;1632110;86;20133;-74
2021/06/28 05:05:44;;;;;;;;;;;;;;;19.82;57.17;100997.82;1631683;87;20102;-74
2021/06/28 05:08:10;;;;;;;;;;;;;;;20.19;56.94;101001.28;1629000;86;20220;-74
2021/06/28 05:10:36;;;;;;;;;;;;;;;20.49;56.92;101000.20;1625204;86;20181;-74
2021/06/28 05:13:02;;;;;;;;;;;;;;;20.81;56.99;101002.00;1631969;87;21033;-74
2021/06/28 05:15:28;;;;;;;;;;;;;;;21.25;56.87;101011.13;1632038;86;20223;-74
2021/06/28 05:17:54;;;;;;;;;;;;;;;21.60;56.59;101009.17;1636073;86;20204;-74
2021/06/28 05:20:20;;;;;;;;;;;;;;;22.00;56.54;101010.38;1632425;86;20227;-74
2021/06/28 05:22:46;;;;;;;;;;;;;;;22.43;56.47;101012.70;1632387;87;20181;-74
2021/06/28 05:25:13;;;;;;;;;;;;;;;22.75;55.86;101014.74;1630689;86;20134;-74
2021/06/28 05:27:39;;;;;;;;;;;;;;;22.92;55.85;101010.62;1632400;86;20110;-74
2021/06/28 05:30:08;;;;;;;;;;;;;;;23.06;55.53;101018.53;1631595;86;20153;-74
2021/06/28 05:32:34;;;;;;;;;;;;;;;23.09;55.83;101013.06;1604229;87;20141;-74
2021/06/28 05:35:00;;;;;;;;;;;;;;;23.48;55.89;101011.97;1630104;86;20116;-74
2021/06/28 05:37:26;;;;;;;;;;;;;;;23.77;55.51;101016.27;1633297;86;20146;-74
2021/06/28 05:39:52;;;;;;;;;;;;;;;24.15;55.70;101016.37;1625417;86;20220;-74
2021/06/28 05:42:18;;;;;;;;;;;;;;;24.36;55.22;101012.34;1629446;86;20181;-73
2021/06/28 05:44:44;;;;;;;;;;;;;;;24.66;55.20;101015.16;1619519;86;20133;-74
2021/06/28 05:47:14;;;;;;;;;;;;;;;24.95;55.11;101021.94;1628140;86;20203;-74
2021/06/28 05:49:42;;;;;;;;;;;;;;;25.23;54.81;101020.00;1625146;87;20130;-74
2021/06/28 05:52:09;;;;;;;;;;;;;;;25.28;54.77;101022.70;1621389;86;20101;-74
2021/06/28 05:54:35;;;;;;;;;;;;;;;25.50;54.74;101028.60;1626039;86;20153;-74
2021/06/28 05:57:01;;;;;;;;;;;;;;;25.78;54.52;101021.34;1623901;86;20112;-75
2021/06/28 05:59:27;;;;;;;;;;;;;;;25.82;54.17;101024.13;1621292;86;20102;-74
2021/06/28 06:01:53;;;;;;;;;;;;;;;25.86;54.31;101027.77;1623083;86;20191;-74
2021/06/28 06:04:19;;;;;;;;;;;;;;;25.95;54.15;101031.55;1619791;86;20274;-74
2021/06/28 06:06:45;;;;;;;;;;;;;;;26.15;54.46;101033.55;1628174;86;20182;-76
2021/06/28 06:09:12;;;;;;;;;;;;;;;26.38;54.13;101038.01;1632022;86;20189;-76
2021/06/28 06:11:38;;;;;;;;;;;;;;;26.56;54.26;101033.56;1636560;86;20204;-76
2021/06/28 06:14:04;;;;;;;;;;;;;;;27.14;54.21;101031.72;1636681;87;20482;-76
2021/06/28 06:16:30;;;;;;;;;;;;;;;27.60;53.72;101028.91;1636403;87;20208;-76
2021/06/28 06:18:56;;;;;;;;;;;;;;;28.10;53.59;101029.21;1635839;86;20264;-76
2021/06/28 06:21:23;;;;;;;;;;;;;;;28.73;53.26;101034.92;1602144;86;20221;-76
2021/06/28 06:23:50;;;;;;;;;;;;;;;29.05;52.85;101036.67;1635024;85;20272;-76
2021/06/28 06:26:16;;;;;;;;;;;;;;;29.22;52.60;101034.19;1629613;87;20197;-76
2021/06/28 06:28:43;;;;;;;;;;;;;;;29.32;52.48;101035.56;1631707;87;20090;-76
2021/06/28 06:31:09;;;;;;;;;;;;;;;29.25;52.22;101042.41;1631692;87;20098;-76
2021/06/28 06:33:34;;;;;;;;;;;;;;;29.19;52.00;101043.78;1631402;87;20157;-76
2021/06/28 06:36:01;;;;;;;;;;;;;;;29.09;51.94;101048.75;1630969;87;20131;-74
2021/06/28 06:38:27;;;;;;;;;;;;;;;28.83;51.84;101041.67;1627501;86;20227;-72
2021/06/28 06:40:53;;;;;;;;;;;;;;;28.62;51.72;101041.66;1628363;88;20217;-73
2021/06/28 06:43:19;;;;;;;;;;;;;;;28.57;51.61;101047.39;1631399;86;20164;-73
2021/06/28 06:45:45;;;;;;;;;;;;;;;28.51;51.62;101047.07;1631352;86;20130;-72
2021/06/28 06:48:11;;;;;;;;;;;;;;;28.73;51.54;101047.39;1632116;86;20142;-72
2021/06/28 06:50:39;;;;;;;;;;;;;;;29.12;51.25;101047.11;1631232;85;20130;-72
2021/06/28 06:53:05;;;;;;;;;;;;;;;29.48;50.84;101050.59;1631291;86;20114;-73
2021/06/28 06:55:31;;;;;;;;;;;;;;;29.78;50.63;101059.47;1630956;86;20168;-73
2021/06/28 06:57:57;;;;;;;;;;;;;;;30.09;50.24;101054.91;1630832;86;20442;-73
2021/06/28 07:00:23;;;;;;;;;;;;;;;30.35;49.93;101057.34;1631529;86;20777;-73
2021/06/28 07:02:50;;;;;;;;;;;;;;;30.66;49.96;101060.70;1631678;86;20114;-73
2021/06/28 07:05:17;;;;;;;;;;;;;;;30.85;49.58;101063.30;1625065;86;20110;-76
2021/06/28 07:07:43;;;;;;;;;;;;;;;31.02;49.31;101067.05;1623196;87;20429;-76
2021/06/28 07:10:11;;;;;;;;;;;;;;;31.36;49.09;101063.83;1631690;88;20117;-76
2021/06/28 07:12:38;;;;;;;;;;;;;;;31.61;48.46;101059.12;1632286;88;20098;-76
2021/06/28 07:15:05;;;;;;;;;;;;;;;31.80;48.36;101062.17;1624457;87;20150;-76
2021/06/28 07:17:31;;;;;;;;;;;;;;;31.95;48.25;101066.02;1627134;87;20098;-76
2021/06/28 07:19:57;;;;;;;;;;;;;;;32.35;48.10;101066.05;1632169;88;20134;-76
2021/06/28 07:22:23;;;;;;;;;;;;;;;32.71;47.57;101064.16;1626148;88;20450;-76
2021/06/28 07:24:50;;;;;;;;;;;;;;;32.87;47.47;101062.43;1630714;86;20142;-76
2021/06/28 07:27:16;;;;;;;;;;;;;;;33.00;47.24;101062.50;1617524;86;20092;-76
2021/06/28 07:29:43;;;;;;;;;;;;;;;33.29;47.01;101064.33;1619556;86;20137;-76
2021/06/28 07:32:09;;;;;;;;;;;;;;;33.44;46.64;101058.70;1619266;87;20129;-76
2021/06/28 07:34:35;;;;;;;;;;;;;;;33.57;46.50;101054.72;1625190;85;20221;-77
2021/06/28 07:37:02;;;;;;;;;;;;;;;33.73;46.44;101051.58;1651185;85;20212;-76
2021/06/28 07:39:28;;;;;;;;;;;;;;;33.93;46.26;101057.99;1637504;86;20229;-75
2021/06/28 07:41:54;;;;;;;;;;;;;;;34.17;46.27;101058.86;1638799;87;20126;-75
2021/06/28 07:44:24;;;;;;;;;;;;;;;34.39;45.93;101056.02;1633063;86;20185;-74
2021/06/28 07:46:48;;;;;;;;;;;;;;;34.50;45.43;101053.48;1638528;86;20568;-74
2021/06/28 07:49:14;;;;;;;;;;;;;;;34.46;45.11;101054.33;1636134;86;20097;-74
2021/06/28 07:51:40;;;;;;;;;;;;;;;34.40;44.82;101047.45;1635953;86;20166;-75
2021/06/28 07:54:07;;;;;;;;;;;;;;;34.12;44.58;101050.97;1600639;87;20198;-75
2021/06/28 07:56:34;;;;;;;;;;;;;;;33.78;44.13;101051.92;1624677;85;20135;-75
2021/06/28 07:59:00;;;;;;;;;;;;;;;33.66;43.98;101047.03;1623349;87;20108;-75
2021/06/28 08:01:28;;;;;;;;;;;;;;;33.56;43.64;101043.15;1623405;86;20133;-75
2021/06/28 08:03:55;;;;;;;;;;;;;;;33.48;43.47;101035.08;1628426;86;20116;-75
2021/06/28 08:06:21;;;;;;;;;;;;;;;33.32;43.15;101035.86;1623130;86;20244;-75
2021/06/28 08:08:50;;;;;;;;;;;;;;;33.30;43.34;101041.88;1621959;86;20134;-75
2021/06/28 08:11:18;;;;;;;;;;;;;;;33.26;42.97;101041.02;1630950;86;20116;-75
2021/06/28 08:13:46;;;;;;;;;;;;;;;33.26;42.50;101039.69;1626041;87;20098;-75
2021/06/28 08:16:13;;;;;;;;;;;;;;;33.17;42.23;101039.65;1627622;86;20473;-75
2021/06/28 08:18:42;;;;;;;;;;;;;;;32.93;42.05;101037.34;1629667;86;20188;-74
2021/06/28 08:21:07;;;;;;;;;;;;;;;32.57;41.90;101038.78;1620871;86;20141;-74
2021/06/28 08:23:33;;;;;;;;;;;;;;;32.13;41.86;101041.44;1624804;86;20130;-74
2021/06/28 08:25:59;;;;;;;;;;;;;;;31.91;41.74;101029.86;1628319;86;20117;-74
2021/06/28 08:28:26;;;;;;;;;;;;;;;31.62;41.65;101038.58;1618484;86;20116;-74
2021/06/28 08:30:52;;;;;;;;;;;;;;;31.48;41.63;101034.58;1623054;86;20131;-74
2021/06/28 08:33:18;;;;;;;;;;;;;;;31.34;41.36;101034.58;1622378;86;20210;-74
2021/06/28 08:35:44;;;;;;;;;;;;;;;31.13;41.12;101036.67;1617691;87;20116;-74
2021/06/28 08:38:10;;;;;;;;;;;;;;;30.95;41.08;101030.73;1636227;86;20110;-73
2021/06/28 08:40:37;;;;;;;;;;;;;;;30.83;41.10;101035.06;1636450;86;20102;-73
2021/06/28 08:43:05;;;;;;;;;;;;;;;30.70;41.05;101031.37;1634672;87;20134;-73
2021/06/28 08:45:36;;;;;;;;;;;;;;;30.73;41.04;101031.58;1628427;87;20102;-74
2021/06/28 08:48:05;;;;;;;;;;;;;;;30.81;40.86;101033.03;1630978;86;20097;-74
2021/06/28 08:50:32;;;;;;;;;;;;;;;30.88;40.70;101030.97;1626809;87;20113;-74
2021/06/28 08:52:58;;;;;;;;;;;;;;;30.88;40.76;101038.14;1630151;86;20164;-74
2021/06/28 08:55:24;;;;;;;;;;;;;;;30.79;40.51;101035.84;1620929;86;20101;-74
2021/06/28 08:57:50;;;;;;;;;;;;;;;30.60;40.50;101038.59;1629422;86;20146;-75
2021/06/28 09:00:17;;;;;;;;;;;;;;;30.61;40.25;101038.94;1636957;86;20138;-74
2021/06/28 09:02:45;;;;;;;;;;;;;;;30.98;40.23;101038.11;1641241;86;20427;-75
2021/06/28 09:05:11;;;;;;;;;;;;;;;31.55;40.11;101027.64;1627723;86;21147;-75
2021/06/28 09:07:37;;;;;;;;;;;;;;;32.00;40.13;101030.78;1636706;86;20185;-75
2021/06/28 09:10:05;;;;;;;;;;;;;;;32.27;40.17;101023.16;1636342;86;20203;-75
2021/06/28 09:12:31;;;;;;;;;;;;;;;32.58;40.07;101029.26;1639050;86;20093;-75
2021/06/28 09:14:59;;;;;;;;;;;;;;;32.92;39.67;101029.80;1621163;87;20232;-75
2021/06/28 09:17:28;;;;;;;;;;;;;;;33.26;39.51;101035.66;1641209;86;21024;-75
2021/06/28 09:20:16;;;;;;;;;;;;;;;33.39;39.14;101034.71;1639565;87;20166;-75
2021/06/28 09:22:43;;;;;;;;;;;;;;;33.40;39.24;101033.71;1638827;86;20113;-75
2021/06/28 09:25:30;;;;;;;;;;;;;;;33.36;39.05;101035.88;1622574;86;20237;-75
2021/06/28 09:27:56;;;;;;;;;;;;;;;33.10;38.88;101029.73;1636905;87;20231;-75
2021/06/28 09:30:23;;;;;;;;;;;;;;;32.81;38.92;101024.72;1638365;86;20378;-75
2021/06/28 09:32:58;;;;;;;;;;;;;;;32.73;38.78;101021.98;1637846;86;20327;-75
2021/06/28 09:35:32;;;;;;;;;;;;;;;32.41;38.69;101025.28;1639926;86;20106;-75
2021/06/28 09:38:01;;;;;;;;;;;;;;;32.16;38.39;101028.25;1626385;86;20352;-75
2021/06/28 09:40:27;;;;;;;;;;;;;;;31.83;38.44;101031.12;1635547;87;20290;-74
2021/06/28 09:42:53;;;;;;;;;;;;;;;31.54;38.19;101028.13;1637441;86;20455;-73
2021/06/28 09:45:21;;;;;;;;;;;;;;;31.40;38.17;101026.46;1635241;86;20272;-73
2021/06/28 09:47:51;;;;;;;;;;;;;;;31.33;38.08;101033.39;1634428;86;20631;-73
2021/06/28 09:50:24;;;;;;;;;;;;;;;31.14;38.00;101027.18;1629945;87;20177;-74
2021/06/28 09:52:52;;;;;;;;;;;;;;;31.07;37.88;101023.87;1624751;88;20114;-74
2021/06/28 09:55:21;;;;;;;;;;;;;;;30.90;37.78;101026.81;1627900;87;20373;-74
2021/06/28 09:58:09;;;;;;;;;;;;;;;30.67;37.92;101027.69;1628224;86;20189;-74
2021/06/28 10:00:48;;;;;;;;;;;;;;;30.59;37.81;101024.89;1628353;88;20340;-74
2021/06/28 10:03:39;;;;;;;;;;;;;;;30.46;37.60;101030.50;1633084;86;20247;-74
2021/06/28 10:06:25;;;;;;;;;;;;;;;30.29;37.64;101030.73;1623945;88;20206;-74
2021/06/28 10:08:44;;;;;;;;;;;;;;;30.18;37.69;101025.53;1616742;87;20132;-73
2021/06/28 10:11:14;;;;;;;;;;;;;;;30.13;37.57;101018.97;1612607;87;20118;-73
2021/06/28 10:13:40;;;;;;;;;;;;;;;30.09;37.33;101025.08;1629333;87;20110;-73
2021/06/28 10:16:07;;;;;;;;;;;;;;;29.96;37.52;101021.81;1631438;86;20142;-73
2021/06/28 10:18:33;;;;;;;;;;;;;;;29.97;37.50;101020.83;1628498;86;20134;-73
2021/06/28 10:20:59;;;;;;;;;;;;;;;29.97;37.57;101014.16;1631207;86;20110;-73
2021/06/28 10:23:25;;;;;;;;;;;;;;;29.92;37.38;101014.58;1632802;86;20122;-73
2021/06/28 10:25:52;;;;;;;;;;;;;;;29.76;37.26;101015.61;1631547;87;20103;-73
2021/06/28 10:28:19;;;;;;;;;;;;;;;29.63;37.26;101014.54;1629648;86;20137;-73
2021/06/28 10:30:45;;;;;;;;;;;;;;;29.60;37.30;101010.01;1631797;88;20126;-73
2021/06/28 10:33:14;;;;;;;;;;;;;;;29.56;37.33;101013.44;1633215;87;20098;-73
2021/06/28 10:35:41;;;;;;;;;;;;;;;29.54;37.29;101009.22;1630561;86;20102;-73
2021/06/28 10:38:10;;;;;;;;;;;;;;;29.47;37.36;101010.75;1629647;85;20094;-73
2021/06/28 10:40:58;;;;;;;;;;;;;;;29.42;37.31;101009.83;1631997;87;20106;-73
2021/06/28 10:43:27;;;;;;;;;;;;;;;29.42;37.35;101012.98;1623885;87;20138;-74
2021/06/28 10:45:54;;;;;;;;;;;;;;;29.37;37.24;101009.36;1631162;87;20107;-73
2021/06/28 10:48:22;;;;;;;;;;;;;;;29.37;37.43;101009.36;1632871;86;20113;-73
2021/06/28 10:50:59;;;;;;;;;;;;;;;29.43;37.46;101011.52;1629195;87;20178;-73
2021/06/28 10:53:38;;;;;;;;;;;;;;;29.55;37.39;101011.75;1639814;86;20134;-73
2021/06/28 10:58:55;;;;;;;;;;;;;;;29.70;37.13;101007.33;1631249;87;20102;-73
2021/06/28 11:01:34;;;;;;;;;;;;;;;29.74;37.26;101008.73;1637932;86;20231;-73
2021/06/28 11:04:14;;;;;;;;;;;;;;;29.80;37.24;101005.52;1627712;86;20113;-73
2021/06/28 11:07:08;;;;;;;;;;;;;;;29.77;37.17;101007.97;1638055;86;37778;-73
2021/06/28 11:09:37;;;;;;;;;;;;;;;29.73;37.18;100999.89;1639056;86;20106;-73
2021/06/28 11:12:06;;;;;;;;;;;;;;;29.78;37.23;101002.14;1628615;86;20347;-73
2021/06/28 11:14:38;;;;;;;;;;;;;;;29.80;37.15;100994.84;1636718;87;20142;-73
2021/06/28 11:17:11;;;;;;;;;;;;;;;29.78;37.08;100994.99;1637457;86;20138;-73
2021/06/28 11:19:54;;;;;;;;;;;;;;;29.75;37.04;100999.75;1636161;86;20413;-73
2021/06/28 11:22:32;;;;;;;;;;;;;;;29.68;36.93;100998.14;1638262;86;20119;-73
2021/06/28 11:25:13;;;;;;;;;;;;;;;29.51;37.01;100998.84;1636825;87;20125;-74
2021/06/28 11:27:46;;;;;;;;;;;;;;;29.36;37.01;100997.02;1637620;86;20140;-74
2021/06/28 11:30:18;;;;;;;;;;;;;;;29.24;37.14;100998.94;1637720;86;20215;-74
2021/06/28 11:33:04;;;;;;;;;;;;;;;29.16;37.14;100996.59;1638919;86;20164;-74
2021/06/28 11:35:42;;;;;;;;;;;;;;;29.09;37.22;100992.81;1637131;87;20184;-74
2021/06/28 11:38:26;;;;;;;;;;;;;;;29.03;37.22;100990.20;1636634;86;20137;-74
2021/06/28 11:40:58;;;;;;;;;;;;;;;28.96;37.25;100987.23;1638095;87;20102;-74
2021/06/28 11:43:39;;;;;;;;;;;;;;;28.82;37.32;100990.25;1636728;86;20157;-74
2021/06/28 11:46:13;;;;;;;;;;;;;;;28.70;37.36;100984.62;1625343;86;20124;-74
2021/06/28 11:48:48;;;;;;;;;;;;;;;28.75;37.50;100978.91;1635379;86;20464;-74
2021/06/28 11:51:16;;;;;;;;;;;;;;;28.84;37.38;100974.14;1619666;87;20137;-75
2021/06/28 11:53:45;;;;;;;;;;;;;;;28.82;37.17;100970.77;1611005;87;20154;-74
2021/06/28 11:56:21;;;;;;;;;;;;;;;28.78;37.16;100979.48;1622137;88;20098;-74
2021/06/28 11:58:56;;;;;;;;;;;;;;;28.72;37.14;100973.35;1619137;87;20121;-73
2021/06/28 12:01:25;;;;;;;;;;;;;;;28.69;37.23;100968.30;1615703;88;20185;-74
2021/06/28 12:03:51;;;;;;;;;;;;;;;28.71;37.06;100965.50;1616233;87;20475;-74
2021/06/28 12:06:18;;;;;;;;;;;;;;;28.70;37.27;100959.34;1615972;87;20133;-73
2021/06/28 12:08:44;;;;;;;;;;;;;;;28.75;37.07;100962.94;1616652;87;20560;-73
2021/06/28 12:11:10;;;;;;;;;;;;;;;28.78;37.04;100959.52;1624109;87;20244;-75
2021/06/28 12:13:39;;;;;;;;;;;;;;;28.82;37.04;100954.80;1619413;87;20519;-76
2021/06/28 12:16:19;;;;;;;;;;;;;;;28.78;37.06;100951.53;1604795;87;20742;-76
2021/06/28 12:18:46;;;;;;;;;;;;;;;28.70;36.98;100950.02;1614999;87;20469;-75
2021/06/28 12:21:13;;;;;;;;;;;;;;;28.61;37.19;100950.81;1617809;87;20477;-76
2021/06/28 12:23:39;;;;;;;;;;;;;;;28.59;37.19;100946.14;1618351;87;20450;-76
2021/06/28 12:26:11;;;;;;;;;;;;;;;28.63;37.31;100947.53;1613140;88;20587;-76
2021/06/28 12:28:38;;;;;;;;;;;;;;;28.68;37.23;100940.84;1625836;86;20430;-76
2021/06/28 12:31:15;;;;;;;;;;;;;;;28.70;37.08;100938.05;1617205;87;20401;-76
2021/06/28 12:33:41;;;;;;;;;;;;;;;28.68;37.17;100942.17;1618899;88;20442;-76
2021/06/28 12:36:07;;;;;;;;;;;;;;;28.63;37.13;100943.05;1611832;87;20500;-76
2021/06/28 12:38:33;;;;;;;;;;;;;;;28.59;37.20;100946.14;1621370;88;20459;-76
2021/06/28 12:40:59;;;;;;;;;;;;;;;28.60;37.23;100931.34;1621932;88;20429;-76
2021/06/28 12:43:26;;;;;;;;;;;;;;;28.61;37.12;100930.86;1621794;88;20487;-75